createdAt,value
2018-08-31T00:00:54.292Z,14.54
2018-08-31T00:01:54.539Z,14.49
2018-08-31T00:02:54.257Z,14.52
2018-08-31T00:03:54.242Z,14.54
2018-08-31T00:04:54.496Z,14.46
2018-08-31T00:05:54.487Z,14.49
2018-08-31T00:06:54.472Z,14.49
2018-08-31T00:07:54.187Z,14.49
2018-08-31T00:08:54.451Z,14.46
2018-08-31T00:09:53.893Z,14.42
2018-08-31T00:10:54.153Z,14.39
2018-08-31T00:11:54.134Z,14.34
2018-08-31T00:12:54.437Z,14.34
2018-08-31T00:13:54.109Z,14.31
2018-08-31T00:14:54.099Z,14.32
2018-08-31T00:15:54.080Z,14.25
2018-08-31T00:16:54.329Z,14.29
2018-08-31T00:17:53.785Z,14.31
2018-08-31T00:18:54.040Z,14.13
2018-08-31T00:19:54.290Z,14.16
2018-08-31T00:20:54.020Z,14.14
2018-08-31T00:21:54.260Z,14.19
2018-08-31T00:22:54.062Z,14.19
2018-08-31T00:23:53.974Z,14.19
2018-08-31T00:24:53.965Z,14.27
2018-08-31T00:25:53.946Z,14.19
2018-08-31T00:26:54.189Z,14.25
2018-08-31T00:27:54.181Z,14.21
2018-08-31T00:28:54.160Z,14.24
2018-08-31T00:29:54.150Z,14.28
2018-08-31T00:30:53.605Z,14.28
2018-08-31T00:31:53.860Z,14.24
2018-08-31T00:32:53.841Z,14.28
2018-08-31T00:33:53.826Z,14.28
2018-08-31T00:34:54.085Z,14.27
2018-08-31T00:35:53.802Z,14.29
2018-08-31T00:36:53.789Z,14.24
2018-08-31T00:37:53.781Z,14.29
2018-08-31T00:38:53.761Z,14.27
2018-08-31T00:39:53.745Z,14.27
2018-08-31T00:40:53.473Z,14.21
2018-08-31T00:41:53.724Z,14.28
2018-08-31T00:42:53.706Z,14.29
2018-08-31T00:43:53.692Z,14.32
2018-08-31T00:44:53.678Z,14.28
2018-08-31T00:45:53.401Z,14.28
2018-08-31T00:46:53.908Z,14.25
2018-08-31T00:47:53.903Z,14.28
2018-08-31T00:48:53.882Z,14.32
2018-08-31T00:49:53.605Z,14.31
2018-08-31T00:50:53.864Z,14.27
2018-08-31T00:51:53.581Z,14.24
2018-08-31T00:52:53.831Z,14.29
2018-08-31T00:53:53.563Z,14.28
2018-08-31T00:54:53.536Z,14.24
2018-08-31T00:55:53.786Z,14.24
2018-08-31T00:56:53.508Z,14.24
2018-08-31T00:57:53.543Z,14.24
2018-08-31T00:58:53.481Z,14.27
2018-08-31T00:59:53.742Z,14.25
2018-08-31T01:00:53.187Z,14.25
2018-08-31T01:01:53.446Z,14.27
2018-08-31T01:02:53.426Z,14.27
2018-08-31T01:03:53.682Z,14.24
2018-08-31T01:04:53.657Z,14.21
2018-08-31T01:05:53.642Z,14.12
2018-08-31T01:06:53.639Z,14.19
2018-08-31T01:07:53.617Z,14.16
2018-08-31T01:08:53.366Z,14.17
2018-08-31T01:09:53.593Z,14.04
2018-08-31T01:10:53.577Z,14.1
2018-08-31T01:11:53.564Z,14.02
2018-08-31T01:12:53.544Z,13.99
2018-08-31T01:13:53.276Z,14.06
2018-08-31T01:14:53.259Z,14.06
2018-08-31T01:15:53.249Z,13.95
2018-08-31T01:16:53.231Z,14.02
2018-08-31T01:17:52.956Z,13.99
2018-08-31T01:18:53.468Z,14.01
2018-08-31T01:19:53.199Z,13.96
2018-08-31T01:20:52.910Z,13.94
2018-08-31T01:21:53.158Z,13.91
2018-08-31T01:22:53.416Z,13.94
2018-08-31T01:23:53.131Z,13.87
2018-08-31T01:24:53.397Z,13.83
2018-08-31T01:25:53.365Z,13.95
2018-08-31T01:26:53.093Z,13.81
2018-08-31T01:27:53.080Z,13.77
2018-08-31T01:28:53.058Z,13.83
2018-08-31T01:29:52.782Z,13.67
2018-08-31T01:30:53.029Z,13.74
2018-08-31T01:31:53.017Z,13.77
2018-08-31T01:32:53.272Z,13.65
2018-08-31T01:33:52.989Z,13.61
2018-08-31T01:34:53.234Z,13.7
2018-08-31T01:35:52.960Z,13.61
2018-08-31T01:36:52.957Z,13.7
2018-08-31T01:37:52.963Z,13.67
2018-08-31T01:38:52.658Z,13.74
2018-08-31T01:39:52.908Z,13.7
2018-08-31T01:40:53.155Z,13.8
2018-08-31T01:41:53.144Z,13.8
2018-08-31T01:42:53.177Z,13.67
2018-08-31T01:43:52.845Z,13.63
2018-08-31T01:44:52.874Z,13.61
2018-08-31T01:45:53.080Z,13.58
2018-08-31T01:46:52.800Z,13.61
2018-08-31T01:47:53.060Z,13.62
2018-08-31T01:48:52.776Z,13.62
2018-08-31T01:49:53.030Z,13.56
2018-08-31T01:50:52.486Z,13.59
2018-08-31T01:51:52.470Z,13.56
2018-08-31T01:52:53.258Z,13.56
2018-08-31T01:53:52.704Z,13.58
2018-08-31T01:54:53.002Z,13.52
2018-08-31T01:55:52.936Z,13.49
2018-08-31T01:56:52.923Z,13.58
2018-08-31T01:57:52.644Z,13.52
2018-08-31T01:58:52.636Z,13.58
2018-08-31T01:59:52.879Z,13.52
2018-08-31T02:00:52.597Z,13.47
2018-08-31T02:01:52.588Z,13.52
2018-08-31T02:02:52.578Z,13.52
2018-08-31T02:03:52.817Z,13.52
2018-08-31T02:04:52.813Z,13.4
2018-08-31T02:05:52.267Z,13.44
2018-08-31T02:06:52.514Z,13.3
2018-08-31T02:07:52.513Z,13.41
2018-08-31T02:08:52.489Z,13.41
2018-08-31T02:09:52.471Z,13.32
2018-08-31T02:10:52.455Z,13.32
2018-08-31T02:11:52.440Z,13.24
2018-08-31T02:12:52.631Z,13.27
2018-08-31T02:13:52.672Z,13.3
2018-08-31T02:14:52.403Z,13.33
2018-08-31T02:15:52.643Z,13.22
2018-08-31T02:16:52.371Z,13.24
2018-08-31T02:17:52.621Z,13.2
2018-08-31T02:18:52.342Z,13.22
2018-08-31T02:19:52.069Z,13.2
2018-08-31T02:20:52.573Z,13.12
2018-08-31T02:21:52.563Z,13.07
2018-08-31T02:22:52.280Z,13.17
2018-08-31T02:23:52.276Z,13.07
2018-08-31T02:24:52.253Z,13.09
2018-08-31T02:25:52.501Z,13.04
2018-08-31T02:26:52.229Z,13.03
2018-08-31T02:27:52.475Z,13.04
2018-08-31T02:28:52.467Z,13.04
2018-08-31T02:29:51.917Z,12.96
2018-08-31T02:30:52.176Z,12.99
2018-08-31T02:31:52.155Z,12.96
2018-08-31T02:32:52.421Z,12.93
2018-08-31T02:33:52.386Z,12.84
2018-08-31T02:34:52.109Z,12.85
2018-08-31T02:35:52.090Z,12.78
2018-08-31T02:36:52.350Z,12.82
2018-08-31T02:37:51.801Z,12.75
2018-08-31T02:38:52.309Z,12.66
2018-08-31T02:39:52.297Z,12.66
2018-08-31T02:40:52.016Z,12.69
2018-08-31T02:41:52.271Z,12.62
2018-08-31T02:42:51.988Z,12.69
2018-08-31T02:43:51.978Z,12.54
2018-08-31T02:44:52.227Z,12.63
2018-08-31T02:45:52.210Z,12.64
2018-08-31T02:46:52.240Z,12.52
2018-08-31T02:47:51.921Z,12.45
2018-08-31T02:48:51.908Z,12.49
2018-08-31T02:49:52.154Z,12.48
2018-08-31T02:50:51.873Z,12.56
2018-08-31T02:51:51.851Z,12.48
2018-08-31T02:52:51.845Z,12.39
2018-08-31T02:53:51.562Z,12.42
2018-08-31T02:54:52.071Z,12.41
2018-08-31T02:55:52.079Z,12.44
2018-08-31T02:56:51.814Z,12.41
2018-08-31T02:57:51.764Z,12.41
2018-08-31T02:58:51.759Z,12.37
2018-08-31T02:59:51.781Z,12.33
2018-08-31T03:00:51.716Z,12.34
2018-08-31T03:01:51.709Z,12.26
2018-08-31T03:02:51.435Z,12.33
2018-08-31T03:03:51.680Z,12.21
2018-08-31T03:04:51.941Z,12.23
2018-08-31T03:05:51.649Z,12.26
2018-08-31T03:06:51.837Z,12.27
2018-08-31T03:07:51.645Z,12.23
2018-08-31T03:08:51.333Z,12.2
2018-08-31T03:09:51.322Z,12.21
2018-08-31T03:10:51.569Z,12.2
2018-08-31T03:11:51.557Z,12.12
2018-08-31T03:12:51.535Z,12.19
2018-08-31T03:13:51.791Z,12.15
2018-08-31T03:14:51.514Z,12.05
2018-08-31T03:15:51.782Z,12.12
2018-08-31T03:16:51.746Z,12.11
2018-08-31T03:17:51.720Z,12.06
2018-08-31T03:18:51.447Z,12.06
2018-08-31T03:19:51.473Z,12.04
2018-08-31T03:20:51.694Z,11.96
2018-08-31T03:21:51.413Z,11.94
2018-08-31T03:22:51.127Z,12.01
2018-08-31T03:23:51.371Z,11.96
2018-08-31T03:24:51.639Z,11.96
2018-08-31T03:25:51.337Z,12.01
2018-08-31T03:26:51.326Z,11.97
2018-08-31T03:27:51.575Z,11.97
2018-08-31T03:28:51.555Z,11.97
2018-08-31T03:29:51.272Z,11.83
2018-08-31T03:30:50.994Z,11.93
2018-08-31T03:31:51.517Z,11.94
2018-08-31T03:32:51.230Z,11.93
2018-08-31T03:33:51.216Z,11.85
2018-08-31T03:34:51.465Z,11.8
2018-08-31T03:35:51.184Z,11.77
2018-08-31T03:36:51.232Z,11.77
2018-08-31T03:37:51.155Z,11.82
2018-08-31T03:38:51.135Z,11.86
2018-08-31T03:39:51.387Z,11.72
2018-08-31T03:40:50.840Z,11.89
2018-08-31T03:41:51.088Z,11.75
2018-08-31T03:42:50.806Z,11.85
2018-08-31T03:43:51.317Z,11.75
2018-08-31T03:44:50.775Z,11.82
2018-08-31T03:45:51.024Z,11.85
2018-08-31T03:46:50.745Z,11.85
2018-08-31T03:47:50.990Z,11.77
2018-08-31T03:48:50.978Z,11.78
2018-08-31T03:49:50.959Z,11.82
2018-08-31T03:50:51.211Z,11.77
2018-08-31T03:51:50.928Z,11.77
2018-08-31T03:52:50.939Z,11.87
2018-08-31T03:53:51.167Z,11.72
2018-08-31T03:54:50.887Z,11.75
2018-08-31T03:55:50.870Z,11.77
2018-08-31T03:56:51.118Z,11.82
2018-08-31T03:57:50.571Z,11.71
2018-08-31T03:58:51.094Z,11.7
2018-08-31T03:59:50.804Z,11.83
2018-08-31T04:00:50.784Z,11.65
2018-08-31T04:01:51.042Z,11.7
2018-08-31T04:02:51.033Z,11.68
2018-08-31T04:03:50.749Z,11.74
2018-08-31T04:04:50.727Z,11.72
2018-08-31T04:05:50.984Z,11.68
2018-08-31T04:06:50.444Z,11.62
2018-08-31T04:07:50.419Z,11.67
2018-08-31T04:08:50.399Z,11.68
2018-08-31T04:09:50.650Z,11.59
2018-08-31T04:10:50.632Z,11.59
2018-08-31T04:11:50.897Z,11.65
2018-08-31T04:12:50.865Z,11.59
2018-08-31T04:13:50.852Z,11.64
2018-08-31T04:14:50.895Z,11.62
2018-08-31T04:15:50.553Z,11.61
2018-08-31T04:16:50.804Z,11.64
2018-08-31T04:17:50.787Z,11.56
2018-08-31T04:18:50.774Z,11.53
2018-08-31T04:19:50.488Z,11.64
2018-08-31T04:20:50.221Z,11.56
2018-08-31T04:21:50.467Z,11.67
2018-08-31T04:22:50.753Z,11.64
2018-08-31T04:23:50.428Z,11.57
2018-08-31T04:24:50.685Z,11.59
2018-08-31T04:25:50.397Z,11.64
2018-08-31T04:26:50.380Z,11.64
2018-08-31T04:27:50.366Z,11.64
2018-08-31T04:28:50.350Z,11.64
2018-08-31T04:29:50.341Z,11.57
2018-08-31T04:30:50.580Z,11.64
2018-08-31T04:31:50.305Z,11.62
2018-08-31T04:32:50.553Z,11.52
2018-08-31T04:33:50.546Z,11.52
2018-08-31T04:34:50.518Z,11.54
2018-08-31T04:35:50.242Z,11.61
2018-08-31T04:36:50.222Z,11.57
2018-08-31T04:37:50.212Z,11.57
2018-08-31T04:38:49.935Z,11.52
2018-08-31T04:39:50.178Z,11.52
2018-08-31T04:40:50.167Z,11.56
2018-08-31T04:41:50.405Z,11.47
2018-08-31T04:42:50.724Z,11.52
2018-08-31T04:43:50.115Z,11.57
2018-08-31T04:44:50.104Z,11.52
2018-08-31T04:45:50.348Z,11.53
2018-08-31T04:46:50.073Z,11.52
2018-08-31T04:47:50.048Z,11.67
2018-08-31T04:48:50.038Z,11.61
2018-08-31T04:49:50.304Z,11.59
2018-08-31T04:50:50.273Z,11.57
2018-08-31T04:51:49.991Z,11.59
2018-08-31T04:52:49.718Z,11.65
2018-08-31T04:53:49.704Z,11.64
2018-08-31T04:54:50.220Z,11.72
2018-08-31T04:55:49.661Z,11.67
2018-08-31T04:56:49.913Z,11.7
2018-08-31T04:57:49.900Z,11.7
2018-08-31T04:58:50.379Z,11.67
2018-08-31T04:59:49.866Z,11.68
2018-08-31T05:00:50.117Z,11.65
2018-08-31T05:01:50.101Z,11.83
2018-08-31T05:02:50.112Z,11.8
2018-08-31T05:03:50.059Z,11.77
2018-08-31T05:04:49.781Z,11.64
2018-08-31T05:05:49.763Z,11.83
2018-08-31T05:06:50.216Z,11.77
2018-08-31T05:07:49.731Z,11.8
2018-08-31T05:08:49.985Z,11.83
2018-08-31T05:09:49.713Z,11.8
2018-08-31T05:10:49.423Z,11.8
2018-08-31T05:11:49.676Z,11.82
2018-08-31T05:12:49.395Z,11.75
2018-08-31T05:13:49.964Z,11.9
2018-08-31T05:14:49.632Z,11.89
2018-08-31T05:15:49.887Z,11.89
2018-08-31T05:16:49.599Z,11.87
2018-08-31T05:17:49.844Z,11.93
2018-08-31T05:18:49.566Z,11.85
2018-08-31T05:19:49.551Z,11.86
2018-08-31T05:20:49.534Z,11.93
2018-08-31T05:21:49.781Z,11.93
2018-08-31T05:22:49.286Z,12.02
2018-08-31T05:23:49.480Z,12.01
2018-08-31T05:24:49.736Z,11.94
2018-08-31T05:25:49.454Z,11.94
2018-08-31T05:26:49.182Z,11.97
2018-08-31T05:27:49.439Z,12.04
2018-08-31T05:28:49.677Z,12.04
2018-08-31T05:29:49.663Z,12.11
2018-08-31T05:30:49.666Z,12.02
2018-08-31T05:31:49.363Z,12.09
2018-08-31T05:32:49.090Z,12.06
2018-08-31T05:33:49.336Z,12.19
2018-08-31T05:34:49.067Z,12.23
2018-08-31T05:35:49.302Z,12.12
2018-08-31T05:36:49.290Z,12.16
2018-08-31T05:37:49.275Z,12.2
2018-08-31T05:38:49.519Z,12.24
2018-08-31T05:39:48.974Z,12.24
2018-08-31T05:40:49.232Z,12.27
2018-08-31T05:41:48.949Z,12.34
2018-08-31T05:42:49.191Z,12.26
2018-08-31T05:43:49.179Z,12.41
2018-08-31T05:44:49.165Z,12.34
2018-08-31T05:45:49.417Z,12.37
2018-08-31T05:46:49.396Z,12.38
2018-08-31T05:47:49.408Z,12.51
2018-08-31T05:48:49.098Z,12.46
2018-08-31T05:49:49.350Z,12.45
2018-08-31T05:50:49.336Z,12.38
2018-08-31T05:51:49.057Z,12.51
2018-08-31T05:52:49.307Z,12.44
2018-08-31T05:53:49.028Z,12.42
2018-08-31T05:54:49.275Z,12.44
2018-08-31T05:55:49.000Z,12.45
2018-08-31T05:56:48.714Z,12.41
2018-08-31T05:57:49.229Z,12.42
2018-08-31T05:58:48.962Z,12.52
2018-08-31T05:59:49.202Z,12.49
2018-08-31T06:00:48.925Z,12.52
2018-08-31T06:01:48.910Z,12.54
2018-08-31T06:02:48.889Z,12.63
2018-08-31T06:03:48.605Z,12.57
2018-08-31T06:04:48.863Z,12.62
2018-08-31T06:05:49.114Z,12.66
2018-08-31T06:06:49.094Z,12.7
2018-08-31T06:07:48.825Z,12.64
2018-08-31T06:08:48.799Z,12.71
2018-08-31T06:09:48.784Z,12.71
2018-08-31T06:10:49.030Z,12.74
2018-08-31T06:11:48.775Z,12.78
2018-08-31T06:12:49.056Z,12.84
2018-08-31T06:13:48.725Z,12.85
2018-08-31T06:14:48.718Z,12.95
2018-08-31T06:15:48.695Z,12.92
2018-08-31T06:16:48.688Z,12.96
2018-08-31T06:17:48.933Z,13.03
2018-08-31T06:18:48.642Z,13.02
2018-08-31T06:19:48.899Z,13.04
2018-08-31T06:20:48.351Z,13.09
2018-08-31T06:21:48.603Z,13.07
2018-08-31T06:22:48.860Z,13.11
2018-08-31T06:23:48.308Z,13.12
2018-08-31T06:24:48.293Z,13.12
2018-08-31T06:25:48.282Z,13.11
2018-08-31T06:26:48.533Z,13.17
2018-08-31T06:27:48.516Z,13.24
2018-08-31T06:28:48.234Z,13.27
2018-08-31T06:29:48.744Z,13.3
2018-08-31T06:30:48.470Z,13.24
2018-08-31T06:31:48.718Z,13.38
2018-08-31T06:32:48.679Z,13.29
2018-08-31T06:33:48.780Z,13.43
2018-08-31T06:34:48.415Z,13.52
2018-08-31T06:35:48.141Z,13.52
2018-08-31T06:36:48.394Z,13.49
2018-08-31T06:37:48.371Z,13.54
2018-08-31T06:38:48.353Z,13.44
2018-08-31T06:39:48.606Z,13.55
2018-08-31T06:40:48.905Z,13.51
2018-08-31T06:41:48.316Z,13.61
2018-08-31T06:42:48.297Z,13.65
2018-08-31T06:43:48.287Z,13.69
2018-08-31T06:44:48.276Z,13.73
2018-08-31T06:45:48.518Z,13.74
2018-08-31T06:46:48.510Z,13.73
2018-08-31T06:47:48.488Z,13.73
2018-08-31T06:48:48.496Z,13.88
2018-08-31T06:49:48.461Z,13.8
2018-08-31T06:50:48.181Z,13.79
2018-08-31T06:51:47.904Z,13.92
2018-08-31T06:52:48.415Z,13.79
2018-08-31T06:53:48.403Z,13.83
2018-08-31T06:54:48.127Z,13.84
2018-08-31T06:55:48.108Z,13.92
2018-08-31T06:56:48.098Z,13.89
2018-08-31T06:57:48.086Z,13.99
2018-08-31T06:58:48.333Z,13.98
2018-08-31T06:59:48.055Z,13.94
2018-08-31T07:00:47.779Z,14.04
2018-08-31T07:01:48.033Z,14.04
2018-08-31T07:02:48.011Z,14.09
2018-08-31T07:03:48.182Z,14.06
2018-08-31T07:04:47.986Z,14.06
2018-08-31T07:05:48.231Z,14.19
2018-08-31T07:06:47.893Z,14.2
2018-08-31T07:07:48.212Z,14.24
2018-08-31T07:08:47.940Z,14.19
2018-08-31T07:09:47.923Z,14.2
2018-08-31T07:10:48.175Z,14.28
2018-08-31T07:11:47.885Z,14.25
2018-08-31T07:12:47.876Z,14.28
2018-08-31T07:13:48.128Z,14.35
2018-08-31T07:14:48.121Z,14.32
2018-08-31T07:15:47.830Z,14.37
2018-08-31T07:16:47.818Z,14.42
2018-08-31T07:17:47.541Z,14.38
2018-08-31T07:18:47.530Z,14.5
2018-08-31T07:19:47.936Z,14.46
2018-08-31T07:20:47.768Z,14.49
2018-08-31T07:21:47.752Z,14.5
2018-08-31T07:22:47.995Z,14.52
2018-08-31T07:23:47.983Z,14.52
2018-08-31T07:24:47.719Z,14.52
2018-08-31T07:25:47.692Z,14.65
2018-08-31T07:26:47.522Z,14.64
2018-08-31T07:27:47.406Z,14.68
2018-08-31T07:28:47.648Z,14.68
2018-08-31T07:29:47.643Z,14.75
2018-08-31T07:30:47.897Z,14.81
2018-08-31T07:31:47.354Z,14.84
2018-08-31T07:32:47.603Z,14.88
2018-08-31T07:33:47.322Z,14.91
2018-08-31T07:34:47.578Z,14.93
2018-08-31T07:35:47.990Z,15.02
2018-08-31T07:36:47.547Z,14.95
2018-08-31T07:37:47.270Z,15.08
2018-08-31T07:38:47.784Z,15.09
2018-08-31T07:39:47.508Z,15.12
2018-08-31T07:40:47.498Z,15.12
2018-08-31T07:41:47.485Z,15.13
2018-08-31T07:42:47.204Z,15.13
2018-08-31T07:43:47.757Z,15.08
2018-08-31T07:44:47.705Z,15.23
2018-08-31T07:45:47.691Z,15.2
2018-08-31T07:46:47.673Z,15.28
2018-08-31T07:47:47.510Z,15.23
2018-08-31T07:48:47.393Z,15.3
2018-08-31T07:49:47.642Z,15.41
2018-08-31T07:50:47.102Z,15.35
2018-08-31T07:51:47.347Z,15.38
2018-08-31T07:52:47.606Z,15.43
2018-08-31T07:53:47.412Z,15.49
2018-08-31T07:54:47.577Z,15.48
2018-08-31T07:55:47.564Z,15.54
2018-08-31T07:56:47.284Z,15.52
2018-08-31T07:57:47.542Z,15.54
2018-08-31T07:58:46.994Z,15.64
2018-08-31T07:59:47.517Z,15.66
2018-08-31T08:00:47.237Z,15.59
2018-08-31T08:01:47.493Z,15.72
2018-08-31T08:02:47.472Z,15.72
2018-08-31T08:03:47.195Z,15.76
2018-08-31T08:04:47.184Z,15.74
2018-08-31T08:05:47.543Z,15.72
2018-08-31T08:06:47.162Z,15.7
2018-08-31T08:07:47.422Z,15.85
2018-08-31T08:08:47.136Z,15.78
2018-08-31T08:09:47.393Z,15.92
2018-08-31T08:10:47.381Z,15.92
2018-08-31T08:11:47.363Z,15.88
2018-08-31T08:12:47.354Z,15.93
2018-08-31T08:13:47.073Z,15.97
2018-08-31T08:14:46.848Z,16
2018-08-31T08:15:47.325Z,16.01
2018-08-31T08:16:47.043Z,16.16
2018-08-31T08:17:47.298Z,16.14
2018-08-31T08:18:47.287Z,16.11
2018-08-31T08:19:47.520Z,16.18
2018-08-31T08:20:46.725Z,16.2
2018-08-31T08:21:47.239Z,16.16
2018-08-31T08:22:47.229Z,16.27
2018-08-31T08:23:47.223Z,16.37
2018-08-31T08:24:46.949Z,16.37
2018-08-31T08:25:46.933Z,16.41
2018-08-31T08:26:46.926Z,16.45
2018-08-31T08:27:47.172Z,16.5
2018-08-31T08:28:46.641Z,16.52
2018-08-31T08:29:46.936Z,16.65
2018-08-31T08:30:46.876Z,16.59
2018-08-31T08:31:47.151Z,16.56
2018-08-31T08:32:46.852Z,16.71
2018-08-31T08:33:46.584Z,16.67
2018-08-31T08:34:46.561Z,16.85
2018-08-31T08:35:47.081Z,16.85
2018-08-31T08:36:47.072Z,16.83
2018-08-31T08:37:47.052Z,16.88
2018-08-31T08:38:47.043Z,16.96
2018-08-31T08:39:47.032Z,17.07
2018-08-31T08:40:47.021Z,17.1
2018-08-31T08:41:47.006Z,17.08
2018-08-31T08:42:46.737Z,17.18
2018-08-31T08:43:46.727Z,17.25
2018-08-31T08:44:46.450Z,17.35
2018-08-31T08:45:46.708Z,17.29
2018-08-31T08:46:46.951Z,17.29
2018-08-31T08:47:46.940Z,17.36
2018-08-31T08:48:46.556Z,17.47
2018-08-31T08:49:46.660Z,17.43
2018-08-31T08:50:46.911Z,17.43
2018-08-31T08:51:46.637Z,17.64
2018-08-31T08:52:46.361Z,17.59
2018-08-31T08:53:46.623Z,17.73
2018-08-31T08:54:46.337Z,17.79
2018-08-31T08:55:46.872Z,17.81
2018-08-31T08:56:46.579Z,17.87
2018-08-31T08:57:46.841Z,17.82
2018-08-31T08:58:46.823Z,17.91
2018-08-31T08:59:46.555Z,18.02
2018-08-31T09:00:46.277Z,18.1
2018-08-31T09:01:46.533Z,18.13
2018-08-31T09:02:46.793Z,18.18
2018-08-31T09:03:46.247Z,18.25
2018-08-31T09:04:46.761Z,18.33
2018-08-31T09:05:47.077Z,18.4
2018-08-31T09:06:46.951Z,18.44
2018-08-31T09:07:46.469Z,18.52
2018-08-31T09:08:46.469Z,18.54
2018-08-31T09:09:46.448Z,18.57
2018-08-31T09:10:46.448Z,18.57
2018-08-31T09:11:46.840Z,18.55
2018-08-31T09:12:46.421Z,18.57
2018-08-31T09:13:46.677Z,18.64
2018-08-31T09:14:46.660Z,18.72
2018-08-31T09:15:46.654Z,18.79
2018-08-31T09:16:46.644Z,18.8
2018-08-31T09:17:46.388Z,18.82
2018-08-31T09:18:46.364Z,18.9
2018-08-31T09:19:46.360Z,18.99
2018-08-31T09:20:46.671Z,18.91
2018-08-31T09:21:46.599Z,18.86
2018-08-31T09:22:46.061Z,18.87
2018-08-31T09:23:46.579Z,18.91
2018-08-31T09:24:47.059Z,18.92
2018-08-31T09:25:46.570Z,18.98
2018-08-31T09:26:46.289Z,18.95
2018-08-31T09:27:46.276Z,19.02
2018-08-31T09:28:46.532Z,19.06
2018-08-31T09:29:46.525Z,18.99
2018-08-31T09:30:46.309Z,18.94
2018-08-31T09:31:46.507Z,18.99
2018-08-31T09:32:46.418Z,19.02
2018-08-31T09:33:46.488Z,19.05
2018-08-31T09:34:45.963Z,19.23
2018-08-31T09:35:46.480Z,19.18
2018-08-31T09:36:46.199Z,19.35
2018-08-31T09:37:46.455Z,19.33
2018-08-31T09:38:46.444Z,19.18
2018-08-31T09:39:46.223Z,19.21
2018-08-31T09:40:46.432Z,19.1
2018-08-31T09:41:46.150Z,19.08
2018-08-31T09:42:46.412Z,19.13
2018-08-31T09:43:45.884Z,19.24
2018-08-31T09:44:45.861Z,19.25
2018-08-31T09:45:46.379Z,19.24
2018-08-31T09:46:46.373Z,19.39
2018-08-31T09:47:45.836Z,19.39
2018-08-31T09:48:45.829Z,19.39
2018-08-31T09:49:46.722Z,19.38
2018-08-31T09:50:46.348Z,19.36
2018-08-31T09:51:46.327Z,19.51
2018-08-31T09:52:46.322Z,19.53
2018-08-31T09:53:46.066Z,19.6
2018-08-31T09:54:46.307Z,19.68
2018-08-31T09:55:46.299Z,19.72
2018-08-31T09:56:46.031Z,19.57
2018-08-31T09:57:46.015Z,19.42
2018-08-31T09:58:46.273Z,19.48
2018-08-31T09:59:46.264Z,19.55
2018-08-31T10:00:46.309Z,19.58
2018-08-31T10:01:45.996Z,19.61
2018-08-31T10:02:45.976Z,19.63
2018-08-31T10:03:45.703Z,19.75
2018-08-31T10:04:45.968Z,19.78
2018-08-31T10:05:46.214Z,19.76
2018-08-31T10:06:46.214Z,19.75
2018-08-31T10:07:45.932Z,19.83
2018-08-31T10:08:45.933Z,19.7
2018-08-31T10:09:45.920Z,19.7
2018-08-31T10:10:46.359Z,19.84
2018-08-31T10:11:45.898Z,19.87
2018-08-31T10:12:46.154Z,19.94
2018-08-31T10:13:46.153Z,19.86
2018-08-31T10:14:46.138Z,19.9
2018-08-31T10:15:46.132Z,19.93
2018-08-31T10:16:45.861Z,19.98
2018-08-31T10:17:45.854Z,19.94
2018-08-31T10:18:46.308Z,20.1
2018-08-31T10:19:46.098Z,20.12
2018-08-31T10:20:45.830Z,20.18
2018-08-31T10:21:45.817Z,20
2018-08-31T10:22:46.078Z,19.8
2018-08-31T10:23:46.076Z,19.66
2018-08-31T10:24:46.053Z,19.76
2018-08-31T10:25:45.788Z,19.78
2018-08-31T10:26:45.776Z,19.8
2018-08-31T10:27:45.767Z,19.83
2018-08-31T10:28:45.509Z,20.02
2018-08-31T10:29:46.020Z,19.98
2018-08-31T10:30:46.012Z,20.1
2018-08-31T10:31:45.746Z,20.16
2018-08-31T10:32:45.471Z,20.23
2018-08-31T10:33:45.985Z,20.3
2018-08-31T10:34:45.713Z,20.3
2018-08-31T10:35:45.443Z,20.3
2018-08-31T10:36:45.970Z,20.35
2018-08-31T10:37:45.954Z,20.43
2018-08-31T10:38:45.678Z,20.39
2018-08-31T10:39:45.678Z,20.38
2018-08-31T10:40:45.940Z,20.41
2018-08-31T10:41:45.663Z,20.46
2018-08-31T10:42:45.921Z,20.41
2018-08-31T10:43:45.650Z,20.47
2018-08-31T10:44:45.900Z,20.35
2018-08-31T10:45:45.894Z,20.5
2018-08-31T10:46:45.889Z,20.66
2018-08-31T10:47:45.886Z,20.62
2018-08-31T10:48:45.619Z,20.9
2018-08-31T10:49:45.602Z,20.93
2018-08-31T10:50:45.858Z,20.93
2018-08-31T10:51:45.844Z,21.05
2018-08-31T10:52:45.845Z,21.13
2018-08-31T10:53:45.834Z,21.08
2018-08-31T10:54:45.559Z,21.13
2018-08-31T10:55:45.556Z,21.05
2018-08-31T10:56:45.281Z,21.02
2018-08-31T10:57:45.806Z,21.09
2018-08-31T10:58:45.534Z,21.11
2018-08-31T10:59:45.524Z,21.24
2018-08-31T11:00:45.518Z,21.34
2018-08-31T11:01:45.774Z,21.32
2018-08-31T11:02:45.503Z,21.41
2018-08-31T11:03:45.788Z,21.56
2018-08-31T11:04:45.497Z,21.54
2018-08-31T11:05:45.751Z,21.35
2018-08-31T11:06:45.683Z,21.35
2018-08-31T11:07:45.473Z,21.13
2018-08-31T11:08:45.726Z,20.71
2018-08-31T11:09:45.721Z,20.58
2018-08-31T11:10:45.446Z,20.49
2018-08-31T11:11:45.736Z,20.47
2018-08-31T11:12:45.812Z,20.39
2018-08-31T11:13:45.425Z,20.35
2018-08-31T11:14:45.683Z,20.38
2018-08-31T11:15:45.684Z,20.3
2018-08-31T11:16:45.668Z,20.42
2018-08-31T11:17:45.663Z,20.39
2018-08-31T11:18:45.471Z,20.3
2018-08-31T11:19:45.385Z,20.25
2018-08-31T11:20:45.378Z,20.3
2018-08-31T11:21:45.375Z,20.31
2018-08-31T11:22:45.624Z,20.3
2018-08-31T11:23:45.613Z,20.27
2018-08-31T11:24:45.343Z,20.46
2018-08-31T11:25:45.332Z,20.42
2018-08-31T11:26:45.331Z,20.42
2018-08-31T11:27:45.442Z,20.39
2018-08-31T11:28:45.050Z,20.42
2018-08-31T11:29:45.302Z,20.39
2018-08-31T11:30:45.293Z,20.42
2018-08-31T11:31:45.288Z,20.34
2018-08-31T11:32:45.292Z,20.49
2018-08-31T11:33:45.010Z,20.51
2018-08-31T11:34:45.261Z,20.84
2018-08-31T11:35:45.515Z,21.06
2018-08-31T11:36:45.566Z,21.21
2018-08-31T11:37:45.506Z,21.53
2018-08-31T11:38:45.515Z,21.74
2018-08-31T11:39:45.497Z,21.9
2018-08-31T11:40:45.484Z,21.99
2018-08-31T11:41:45.216Z,22.14
2018-08-31T11:42:45.204Z,22.14
2018-08-31T11:43:45.204Z,22.12
2018-08-31T11:44:45.460Z,21.99
2018-08-31T11:45:45.197Z,22.04
2018-08-31T11:46:44.919Z,21.94
2018-08-31T11:47:45.181Z,21.95
2018-08-31T11:48:45.431Z,21.97
2018-08-31T11:49:45.166Z,22.01
2018-08-31T11:50:45.432Z,21.88
2018-08-31T11:51:44.941Z,21.74
2018-08-31T11:52:44.897Z,21.88
2018-08-31T11:53:45.144Z,21.97
2018-08-31T11:54:45.396Z,21.79
2018-08-31T11:55:45.403Z,21.94
2018-08-31T11:56:45.147Z,21.81
2018-08-31T11:57:44.855Z,21.74
2018-08-31T11:58:45.127Z,21.72
2018-08-31T11:59:45.367Z,21.67
2018-08-31T12:00:45.190Z,21.48
2018-08-31T12:01:45.404Z,21.42
2018-08-31T12:02:45.093Z,21.19
2018-08-31T12:03:45.348Z,21.38
2018-08-31T12:04:44.811Z,21.35
2018-08-31T12:05:45.334Z,21.57
2018-08-31T12:06:44.798Z,21.81
2018-08-31T12:07:45.225Z,21.94
2018-08-31T12:08:45.048Z,22.22
2018-08-31T12:09:45.328Z,22.2
2018-08-31T12:10:45.313Z,22.32
2018-08-31T12:11:45.293Z,22.5
2018-08-31T12:12:45.075Z,22.72
2018-08-31T12:13:45.287Z,22.9
2018-08-31T12:14:45.283Z,23.01
2018-08-31T12:15:45.279Z,23.14
2018-08-31T12:16:45.319Z,23.22
2018-08-31T12:17:45.011Z,23.31
2018-08-31T12:18:44.995Z,23.39
2018-08-31T12:19:45.262Z,23.45
2018-08-31T12:20:44.991Z,23.58
2018-08-31T12:21:45.246Z,23.61
2018-08-31T12:22:44.977Z,23.68
2018-08-31T12:23:45.294Z,23.7
2018-08-31T12:24:45.033Z,23.58
2018-08-31T12:25:45.233Z,23.67
2018-08-31T12:26:44.967Z,23.75
2018-08-31T12:27:44.958Z,23.72
2018-08-31T12:28:44.954Z,23.65
2018-08-31T12:29:45.213Z,23.72
2018-08-31T12:30:44.944Z,23.65
2018-08-31T12:31:45.211Z,23.57
2018-08-31T12:32:45.207Z,23.45
2018-08-31T12:33:44.982Z,23.23
2018-08-31T12:34:44.944Z,23.23
2018-08-31T12:35:44.942Z,23.05
2018-08-31T12:36:44.918Z,23.12
2018-08-31T12:37:44.927Z,23.14
2018-08-31T12:38:45.271Z,23.17
2018-08-31T12:39:44.902Z,23.15
2018-08-31T12:40:44.639Z,23.2
2018-08-31T12:41:44.908Z,23.08
2018-08-31T12:42:45.157Z,23.23
2018-08-31T12:43:44.992Z,23.31
2018-08-31T12:44:44.628Z,23.29
2018-08-31T12:45:44.937Z,23.4
2018-08-31T12:46:44.875Z,23.32
2018-08-31T12:47:44.867Z,23.46
2018-08-31T12:48:44.876Z,23.39
2018-08-31T12:49:45.123Z,23.38
2018-08-31T12:50:45.135Z,23.39
2018-08-31T12:51:45.194Z,23.32
2018-08-31T12:52:44.849Z,23.39
2018-08-31T12:53:45.061Z,23.4
2018-08-31T12:54:44.568Z,23.4
2018-08-31T12:55:44.831Z,23.43